Time;durP1;ratioP1;P1;durP2;ratioP2;P2;SDS_P1;SDS_P2;PMS_P1;PMS_P2;Temp;Humidity;BMP_temperature;BMP_pressure;BME280_temperature;BME280_humidity;BME280_pressure;Samples;Min_cycle;Max_cycle;Signal;HPM_P1;HPM_P2
2022/08/30 00:02:00;;;;;;;7.18;2.40;;;24.70;57.90;;;;;;5029331;28;20033;-60
2022/08/30 00:04:26;;;;;;;5.60;2.40;;;24.70;58.00;;;;;;5030155;28;20029;-59
2022/08/30 00:06:51;;;;;;;8.32;2.80;;;24.70;57.90;;;;;;5022571;28;20034;-60
2022/08/30 00:09:17;;;;;;;7.65;2.50;;;24.70;58.00;;;;;;5024804;28;20091;-60
2022/08/30 00:11:43;;;;;;;6.93;2.35;;;24.70;59.10;;;;;;5025580;28;20060;-59
2022/08/30 00:14:08;;;;;;;6.53;2.42;;;24.70;58.00;;;;;;5027015;28;20079;-59
2022/08/30 00:16:34;;;;;;;5.22;2.33;;;24.70;58.00;;;;;;5029872;28;20080;-59
2022/08/30 00:19:00;;;;;;;6.13;2.22;;;24.60;58.00;;;;;;5030376;28;20036;-60
2022/08/30 00:21:26;;;;;;;6.28;2.33;;;24.70;58.10;;;;;;5030642;28;20034;-59
2022/08/30 00:23:52;;;;;;;6.05;2.17;;;24.60;59.00;;;;;;5029167;28;20068;-59
2022/08/30 00:26:18;;;;;;;6.15;2.45;;;24.60;58.00;;;;;;5029526;28;20029;-60
2022/08/30 00:28:43;;;;;;;6.82;2.13;;;24.60;58.00;;;;;;5030493;28;20028;-59
2022/08/30 00:31:09;;;;;;;6.80;2.58;;;24.60;58.10;;;;;;5029548;28;20036;-60
2022/08/30 00:33:35;;;;;;;6.05;2.42;;;24.60;58.10;;;;;;5029626;28;20031;-59
2022/08/30 00:36:00;;;;;;;7.53;2.50;;;24.60;58.20;;;;;;5029155;28;20113;-60
2022/08/30 00:38:26;;;;;;;6.03;2.28;;;24.60;58.20;;;;;;5030046;28;20068;-59
2022/08/30 00:40:52;;;;;;;6.28;2.40;;;24.60;58.20;;;;;;5026776;28;20035;-59
2022/08/30 00:43:24;;;;;;;5.28;2.38;;;24.60;58.20;;;;;;5030340;28;20044;-59
2022/08/30 00:45:49;;;;;;;5.95;2.25;;;24.50;58.10;;;;;;5030204;28;20025;-59
2022/08/30 00:48:15;;;;;;;6.85;2.20;;;24.50;58.10;;;;;;5029487;28;20075;-59
2022/08/30 00:50:43;;;;;;;6.50;2.47;;;24.60;58.20;;;;;;5030212;28;20091;-60
2022/08/30 00:53:12;;;;;;;5.25;2.20;;;24.60;58.30;;;;;;5026802;28;20521;-59
2022/08/30 00:55:38;;;;;;;6.80;2.38;;;24.50;58.20;;;;;;5027620;28;20040;-59
2022/08/30 00:58:05;;;;;;;5.20;2.28;;;24.50;58.30;;;;;;5028716;28;20041;-59
2022/08/30 01:00:31;;;;;;;5.47;2.25;;;24.50;58.30;;;;;;5028516;28;20457;-59
2022/08/30 01:02:57;;;;;;;5.40;2.20;;;24.50;58.30;;;;;;5028975;28;20025;-59
2022/08/30 01:05:22;;;;;;;5.30;2.30;;;24.50;58.30;;;;;;5029302;28;20516;-59
2022/08/30 01:07:48;;;;;;;6.00;2.17;;;24.50;58.30;;;;;;5030046;28;20461;-59
2022/08/30 01:10:14;;;;;;;6.10;2.20;;;24.50;58.30;;;;;;5027902;28;20022;-59
2022/08/30 01:12:40;;;;;;;6.55;2.38;;;24.50;58.40;;;;;;5026900;28;20080;-59
2022/08/30 01:15:06;;;;;;;5.40;2.40;;;24.50;58.40;;;;;;5029778;28;20104;-59
2022/08/30 01:17:33;;;;;;;6.40;2.30;;;24.50;58.50;;;;;;5028285;28;20520;-59
2022/08/30 01:20:00;;;;;;;5.38;2.20;;;24.40;58.30;;;;;;5027118;28;20510;-59
2022/08/30 01:22:42;;;;;;;6.40;2.30;;;24.40;58.30;;;;;;5027253;28;20060;-59
2022/08/30 01:25:08;;;;;;;6.65;2.53;;;24.40;58.30;;;;;;5025847;28;20045;-59
2022/08/30 01:27:35;;;;;;;5.03;2.10;;;24.40;58.40;;;;;;5026415;28;20022;-60
2022/08/30 01:30:00;;;;;;;6.40;2.47;;;24.40;58.40;;;;;;5025858;28;20029;-60
2022/08/30 01:32:28;;;;;;;5.93;2.03;;;24.40;58.50;;;;;;5028135;28;20510;-59
2022/08/30 01:34:54;;;;;;;6.57;2.20;;;24.40;58.40;;;;;;5029048;28;20029;-59
2022/08/30 01:37:28;;;;;;;5.85;2.30;;;24.40;58.50;;;;;;5028593;28;20091;-59
2022/08/30 01:39:53;;;;;;;5.05;2.22;;;24.40;58.50;;;;;;5021889;28;20026;-59
2022/08/30 01:42:19;;;;;;;6.05;2.25;;;24.40;58.50;;;;;;5027068;28;20112;-59
2022/08/30 01:44:45;;;;;;;7.70;2.60;;;24.40;58.50;;;;;;5026639;28;20017;-59
2022/08/30 01:47:11;;;;;;;6.13;2.40;;;24.40;58.50;;;;;;5029091;28;20029;-59
2022/08/30 01:49:37;;;;;;;5.97;2.45;;;24.40;58.50;;;;;;5028858;28;20486;-60
2022/08/30 01:52:04;;;;;;;5.85;2.00;;;24.30;58.50;;;;;;5028873;28;20116;-59
2022/08/30 01:54:30;;;;;;;5.00;2.00;;;24.40;58.60;;;;;;5027256;28;20583;-59
2022/08/30 01:56:55;;;;;;;6.35;2.33;;;24.30;58.60;;;;;;5029351;28;20034;-59
2022/08/30 01:59:21;;;;;;;5.78;2.40;;;24.30;58.60;;;;;;5028539;28;20048;-59
2022/08/30 02:01:47;;;;;;;4.53;2.05;;;24.40;58.60;;;;;;5026442;28;20029;-59
2022/08/30 02:04:14;;;;;;;5.60;2.28;;;24.30;58.60;;;;;;5028750;28;20083;-59
2022/08/30 02:06:40;;;;;;;5.75;2.22;;;24.30;58.60;;;;;;5028680;28;20072;-59
2022/08/30 02:09:05;;;;;;;5.18;2.00;;;24.30;58.60;;;;;;5028873;28;20462;-59
2022/08/30 02:11:31;;;;;;;4.75;2.22;;;24.30;58.70;;;;;;5027990;28;20064;-59
2022/08/30 02:13:57;;;;;;;6.65;2.35;;;24.30;58.70;;;;;;5027635;28;20030;-59
2022/08/30 02:16:23;;;;;;;4.82;2.00;;;24.30;58.70;;;;;;5027735;28;20049;-60
2022/08/30 02:18:49;;;;;;;5.55;2.20;;;24.30;58.70;;;;;;5026627;28;20033;-59
2022/08/30 02:21:15;;;;;;;5.57;2.35;;;24.30;58.70;;;;;;5028099;28;20038;-59
2022/08/30 02:23:41;;;;;;;4.32;2.03;;;24.30;58.70;;;;;;5028360;28;20026;-59
2022/08/30 02:26:07;;;;;;;5.65;2.20;;;24.30;58.70;;;;;;5027948;28;20036;-59
2022/08/30 02:28:32;;;;;;;4.47;2.00;;;24.30;58.80;;;;;;5028174;28;20029;-59
2022/08/30 02:30:58;;;;;;;5.25;2.35;;;24.30;58.80;;;;;;5028060;28;20493;-59
2022/08/30 02:33:24;;;;;;;5.35;2.15;;;24.20;58.80;;;;;;5026878;28;20438;-61
2022/08/30 02:35:49;;;;;;;4.78;2.15;;;24.30;58.80;;;;;;5027861;28;20025;-59
2022/08/30 02:38:15;;;;;;;6.30;2.35;;;24.20;58.80;;;;;;5027939;28;20112;-59
2022/08/30 02:40:41;;;;;;;5.13;2.10;;;24.30;58.80;;;;;;5028101;28;20049;-59
2022/08/30 02:43:06;;;;;;;6.25;2.00;;;24.30;58.80;;;;;;5027930;28;20025;-59
2022/08/30 02:45:32;;;;;;;4.85;2.10;;;24.20;58.80;;;;;;5027787;28;20026;-59
2022/08/30 02:47:58;;;;;;;6.20;2.30;;;24.20;58.80;;;;;;5026766;28;20033;-59
2022/08/30 02:50:24;;;;;;;5.20;2.00;;;24.20;58.80;;;;;;5027077;28;20075;-60
2022/08/30 02:52:50;;;;;;;6.07;2.22;;;24.20;58.80;;;;;;5027845;28;20636;-60
2022/08/30 02:55:15;;;;;;;4.93;2.25;;;24.20;58.90;;;;;;5023817;28;20132;-60
2022/08/30 02:57:43;;;;;;;6.50;2.25;;;24.20;58.90;;;;;;5028154;28;20022;-59
2022/08/30 03:00:11;;;;;;;5.97;2.22;;;24.20;58.90;;;;;;5026991;28;20033;-59
2022/08/30 03:02:36;;;;;;;4.15;2.00;;;24.20;58.90;;;;;;5026978;28;20644;-59
2022/08/30 03:05:03;;;;;;;5.45;2.10;;;24.20;58.90;;;;;;5027520;28;20055;-59
2022/08/30 03:07:28;;;;;;;5.50;2.30;;;24.20;58.90;;;;;;5027492;28;20029;-59
2022/08/30 03:09:54;;;;;;;5.68;2.30;;;24.20;58.90;;;;;;5027070;28;20132;-59
2022/08/30 03:12:19;;;;;;;5.93;2.40;;;24.10;58.90;;;;;;5027492;28;20060;-59
2022/08/30 03:14:45;;;;;;;4.30;1.98;;;24.20;58.90;;;;;;5027335;28;20029;-59
2022/08/30 03:17:11;;;;;;;5.10;2.10;;;24.10;58.90;;;;;;5027066;28;20034;-59
2022/08/30 03:19:36;;;;;;;5.13;2.30;;;24.10;59.00;;;;;;5026893;28;20108;-59
2022/08/30 03:22:03;;;;;;;4.32;2.00;;;24.10;59.00;;;;;;5026958;28;20159;-59
2022/08/30 03:24:28;;;;;;;5.05;2.20;;;24.10;59.00;;;;;;5024763;28;21510;-59
2022/08/30 03:26:54;;;;;;;7.07;2.28;;;24.10;59.00;;;;;;5025847;28;20565;-59
2022/08/30 03:29:20;;;;;;;4.18;1.88;;;24.10;59.10;;;;;;5027424;28;20515;-59
2022/08/30 03:31:46;;;;;;;5.28;2.25;;;24.10;59.00;;;;;;5026844;28;20017;-59
2022/08/30 03:34:11;;;;;;;5.85;2.33;;;24.10;59.10;;;;;;5027421;28;20037;-59
2022/08/30 03:36:38;;;;;;;6.10;2.05;;;24.10;59.10;;;;;;5026937;28;20061;-59
2022/08/30 03:39:05;;;;;;;5.95;2.20;;;24.10;59.10;;;;;;5027557;28;20061;-60
2022/08/30 03:41:31;;;;;;;6.18;2.22;;;24.10;59.10;;;;;;5027632;28;20045;-59
2022/08/30 03:43:57;;;;;;;4.47;2.20;;;24.10;59.10;;;;;;5024286;28;20073;-59
2022/08/30 03:46:23;;;;;;;5.35;2.05;;;24.10;59.10;;;;;;5027082;28;20083;-59
2022/08/30 03:48:48;;;;;;;5.55;2.10;;;24.10;59.10;;;;;;5026833;28;20029;-59
2022/08/30 03:51:14;;;;;;;4.72;1.90;;;24.10;59.20;;;;;;5029146;28;20806;-59
2022/08/30 03:53:40;;;;;;;5.70;2.25;;;24.10;59.10;;;;;;5030759;28;20510;-59
2022/08/30 03:56:06;;;;;;;4.68;2.17;;;24.10;59.20;;;;;;5030765;28;20065;-59
2022/08/30 03:58:31;;;;;;;5.97;2.30;;;24.10;59.20;;;;;;5031343;28;20065;-60
2022/08/30 04:00:57;;;;;;;4.88;2.13;;;24.00;59.20;;;;;;5028696;28;20478;-59
2022/08/30 04:03:24;;;;;;;4.70;1.92;;;24.00;59.20;;;;;;5031123;28;20036;-59
2022/08/30 04:05:54;;;;;;;3.80;1.83;;;24.00;59.20;;;;;;5029572;28;20025;-59
2022/08/30 04:08:20;;;;;;;5.72;2.35;;;24.00;59.20;;;;;;5031098;28;20512;-59
2022/08/30 04:10:46;;;;;;;5.25;2.20;;;24.00;59.20;;;;;;5030597;28;20045;-59
2022/08/30 04:13:15;;;;;;;5.00;1.95;;;24.00;59.20;;;;;;5030498;28;20028;-59
2022/08/30 04:15:41;;;;;;;4.68;1.92;;;24.00;59.20;;;;;;5030182;28;20446;-59
2022/08/30 04:18:07;;;;;;;5.97;2.28;;;24.00;59.20;;;;;;5029008;28;20116;-59
2022/08/30 04:20:32;;;;;;;4.60;2.03;;;24.00;59.20;;;;;;5031448;28;20049;-59
2022/08/30 04:22:58;;;;;;;4.68;2.15;;;24.00;59.20;;;;;;5030812;28;20021;-58
2022/08/30 04:25:24;;;;;;;5.43;2.20;;;24.00;59.30;;;;;;5029936;28;20025;-59
2022/08/30 04:27:49;;;;;;;5.38;2.15;;;24.00;59.30;;;;;;5030001;28;20371;-59
2022/08/30 04:30:16;;;;;;;4.43;2.10;;;24.00;59.10;;;;;;5030225;28;20135;-59
2022/08/30 04:32:43;;;;;;;3.78;1.90;;;24.00;59.30;;;;;;5025793;28;20032;-59
2022/08/30 04:35:10;;;;;;;4.32;2.03;;;23.90;59.20;;;;;;5029169;28;20041;-59
2022/08/30 04:37:37;;;;;;;7.10;2.63;;;23.90;59.20;;;;;;5012987;28;20512;-59
2022/08/30 04:40:03;;;;;;;4.78;2.05;;;23.90;59.20;;;;;;5029880;28;20029;-59
2022/08/30 04:42:31;;;;;;;4.60;2.00;;;23.90;59.30;;;;;;5029627;28;20033;-59
2022/08/30 04:44:58;;;;;;;5.55;2.13;;;23.90;59.30;;;;;;5030915;28;20116;-59
2022/08/30 04:47:23;;;;;;;5.95;2.10;;;23.90;59.30;;;;;;5028855;28;20092;-59
2022/08/30 04:49:49;;;;;;;4.20;1.90;;;23.90;59.30;;;;;;5027011;28;20557;-59
2022/08/30 04:52:14;;;;;;;5.20;2.15;;;23.90;59.30;;;;;;5026102;28;20033;-59
2022/08/30 04:54:40;;;;;;;4.05;2.35;;;23.90;59.40;;;;;;5026855;28;20039;-59
2022/08/30 04:57:06;;;;;;;4.82;2.03;;;23.90;59.30;;;;;;5028540;28;20033;-60
2022/08/30 04:59:32;;;;;;;4.18;1.90;;;23.90;59.40;;;;;;5027893;28;20079;-59
2022/08/30 05:01:58;;;;;;;4.78;1.95;;;23.90;59.40;;;;;;5022829;28;20804;-59
2022/08/30 05:04:23;;;;;;;4.60;2.20;;;23.90;59.40;;;;;;5027516;28;20033;-59
2022/08/30 05:06:49;;;;;;;4.60;1.90;;;23.90;59.40;;;;;;5025240;28;20622;-59
2022/08/30 05:09:15;;;;;;;5.40;1.90;;;23.90;59.40;;;;;;5024100;28;20565;-60
2022/08/30 05:11:42;;;;;;;4.63;2.10;;;23.90;59.40;;;;;;5026550;28;20029;-60
2022/08/30 05:14:07;;;;;;;5.47;2.20;;;23.90;59.40;;;;;;5023154;28;20084;-59
2022/08/30 05:16:33;;;;;;;3.70;1.90;;;23.80;59.40;;;;;;5028178;28;20405;-59
2022/08/30 05:18:59;;;;;;;4.32;1.77;;;23.90;59.50;;;;;;5024303;28;20063;-59
2022/08/30 05:21:25;;;;;;;4.25;2.00;;;23.90;59.40;;;;;;5025384;28;20046;-59
2022/08/30 05:23:52;;;;;;;4.35;1.88;;;23.90;59.70;;;;;;5028822;28;21409;-59
2022/08/30 05:26:20;;;;;;;7.15;2.10;;;23.90;59.60;;;;;;5028090;28;20112;-59
2022/08/30 05:28:46;;;;;;;5.47;2.10;;;23.90;59.90;;;;;;5027361;28;20163;-59
2022/08/30 05:31:24;;;;;;;6.75;2.35;;;23.90;60.00;;;;;;5024046;28;20037;-59
2022/08/30 05:33:50;;;;;;;6.00;2.25;;;23.90;60.00;;;;;;5029332;28;20036;-60
2022/08/30 05:36:17;;;;;;;6.30;2.20;;;23.90;60.00;;;;;;5028199;28;20029;-59
2022/08/30 05:38:43;;;;;;;8.85;2.20;;;23.90;60.00;;;;;;5026915;28;20052;-59
2022/08/30 05:41:08;;;;;;;5.25;2.03;;;23.90;59.90;;;;;;5027161;28;20057;-59
2022/08/30 05:43:35;;;;;;;7.65;2.10;;;23.90;59.90;;;;;;5029499;28;20115;-59
2022/08/30 05:46:02;;;;;;;7.82;2.28;;;23.90;60.00;;;;;;5029257;28;20061;-59
2022/08/30 05:48:27;;;;;;;7.40;2.20;;;23.90;60.00;;;;;;5029216;28;20029;-59
2022/08/30 05:51:23;;;;;;;5.38;2.05;;;23.90;60.00;;;;;;5028631;28;20021;-59
2022/08/30 05:53:48;;;;;;;;;;;23.90;60.00;;;;;;5020484;28;20107;-59
2022/08/30 05:56:17;;;;;;;7.93;2.28;;;23.90;60.00;;;;;;5026788;28;20372;-59
2022/08/30 05:58:42;;;;;;;6.07;2.15;;;23.90;60.00;;;;;;5028842;28;20025;-59
2022/08/30 06:01:38;;;;;;;5.93;2.30;;;23.90;60.00;;;;;;5028893;28;20520;-59
2022/08/30 06:04:04;;;;;;;6.57;2.30;;;23.90;60.00;;;;;;5029022;28;20025;-59
2022/08/30 06:06:31;;;;;;;6.40;2.10;;;23.90;60.10;;;;;;5026657;28;20049;-59
2022/08/30 06:08:56;;;;;;;4.63;2.15;;;23.90;60.10;;;;;;5028732;28;20040;-59
2022/08/30 06:11:23;;;;;;;5.63;2.35;;;23.90;60.00;;;;;;5028382;28;20037;-59
2022/08/30 06:13:49;;;;;;;5.57;2.22;;;23.90;60.10;;;;;;5026973;28;20017;-59
2022/08/30 06:16:18;;;;;;;6.32;2.20;;;23.90;60.10;;;;;;5028585;28;20025;-59
2022/08/30 06:18:44;;;;;;;6.32;2.05;;;23.90;60.10;;;;;;5029271;28;20132;-59
2022/08/30 06:21:27;;;;;;;6.63;2.35;;;23.90;60.10;;;;;;5028655;28;20573;-59
2022/08/30 06:23:53;;;;;;;6.70;2.25;;;23.90;60.10;;;;;;5025481;28;20453;-59
2022/08/30 06:26:19;;;;;;;5.53;2.30;;;23.90;60.10;;;;;;5027620;28;20053;-59
2022/08/30 06:28:44;;;;;;;7.40;2.22;;;23.90;60.10;;;;;;5026166;28;20074;-59
2022/08/30 06:31:11;;;;;;;7.13;2.15;;;23.90;60.20;;;;;;5027903;28;20104;-60
2022/08/30 06:33:37;;;;;;;5.57;2.28;;;23.90;60.10;;;;;;5028096;28;20025;-60
2022/08/30 06:36:04;;;;;;;5.40;2.22;;;23.90;60.10;;;;;;5028778;28;20032;-59
2022/08/30 06:38:30;;;;;;;7.97;2.20;;;23.90;60.10;;;;;;5026510;28;20586;-59
2022/08/30 06:40:55;;;;;;;6.30;2.70;;;23.90;60.20;;;;;;5026032;28;20043;-59
2022/08/30 06:43:21;;;;;;;6.28;2.10;;;23.90;60.20;;;;;;5027652;28;20512;-59
2022/08/30 06:45:47;;;;;;;7.68;2.40;;;23.90;60.20;;;;;;5026690;28;20494;-59
2022/08/30 06:48:12;;;;;;;6.70;2.08;;;23.90;60.20;;;;;;5027930;28;20032;-59
2022/08/30 06:50:40;;;;;;;4.93;1.92;;;23.90;60.20;;;;;;5027905;28;20136;-59
2022/08/30 06:53:06;;;;;;;5.85;2.38;;;23.90;60.20;;;;;;5026222;28;20502;-59
2022/08/30 06:55:32;;;;;;;5.88;2.33;;;23.90;60.20;;;;;;5027406;28;20033;-59
2022/08/30 06:57:59;;;;;;;5.68;2.10;;;23.90;60.30;;;;;;5027764;28;20440;-59
2022/08/30 07:00:24;;;;;;;4.53;1.90;;;23.90;60.20;;;;;;5026912;28;20021;-59
2022/08/30 07:02:50;;;;;;;6.93;2.22;;;23.90;60.30;;;;;;5026146;28;20493;-59
2022/08/30 07:05:16;;;;;;;4.10;2.00;;;23.90;60.20;;;;;;5026853;28;20444;-59
2022/08/30 07:07:42;;;;;;;6.15;2.20;;;23.90;60.20;;;;;;5027325;28;20037;-59
2022/08/30 07:10:08;;;;;;;5.97;2.15;;;23.90;60.20;;;;;;5027919;28;20025;-59
2022/08/30 07:12:35;;;;;;;5.38;2.00;;;23.90;60.20;;;;;;5027134;28;20049;-59
2022/08/30 07:15:02;;;;;;;4.53;2.17;;;23.90;60.20;;;;;;5027168;28;20032;-59
2022/08/30 07:20:12;;;;;;;6.15;2.30;;;23.90;60.30;;;;;;5026530;28;20036;-59
2022/08/30 07:22:38;;;;;;;5.00;1.98;;;23.90;60.20;;;;;;5026769;28;20030;-59
2022/08/30 07:25:04;;;;;;;6.55;2.33;;;23.90;60.20;;;;;;5026363;28;20049;-60
2022/08/30 07:27:30;;;;;;;5.47;2.28;;;23.90;60.20;;;;;;5027263;28;20033;-60
2022/08/30 07:29:57;;;;;;;4.90;2.03;;;23.90;60.20;;;;;;5026871;28;20052;-59
2022/08/30 07:32:23;;;;;;;5.78;2.05;;;23.90;60.20;;;;;;5025945;28;20029;-59
2022/08/30 07:34:48;;;;;;;7.25;2.17;;;23.90;60.20;;;;;;5026871;28;20067;-59
2022/08/30 07:37:14;;;;;;;6.10;2.10;;;23.90;60.20;;;;;;5024769;28;20029;-60
2022/08/30 07:39:40;;;;;;;4.25;2.00;;;23.90;60.20;;;;;;5027603;28;20071;-60
2022/08/30 07:42:05;;;;;;;5.80;2.20;;;24.00;60.30;;;;;;5026604;28;20040;-60
2022/08/30 07:44:31;;;;;;;4.90;2.15;;;24.00;60.30;;;;;;5023923;28;20109;-60
2022/08/30 07:46:57;;;;;;;5.75;2.10;;;24.00;60.30;;;;;;5027491;28;20025;-59
2022/08/30 07:49:22;;;;;;;5.38;2.20;;;24.00;60.30;;;;;;5027097;28;20402;-60
2022/08/30 07:51:48;;;;;;;5.13;2.00;;;24.00;60.20;;;;;;5026449;28;20025;-59
2022/08/30 07:54:14;;;;;;;5.68;2.00;;;24.00;60.30;;;;;;5022816;28;20049;-59
2022/08/30 07:56:40;;;;;;;6.20;2.10;;;24.00;60.30;;;;;;5027364;28;20029;-59
2022/08/30 07:59:05;;;;;;;5.10;2.03;;;24.00;60.30;;;;;;5027317;28;20109;-60
2022/08/30 08:01:31;;;;;;;4.32;1.90;;;24.00;60.30;;;;;;5027319;28;20048;-60
2022/08/30 08:03:57;;;;;;;6.03;2.28;;;24.00;60.30;;;;;;5026853;28;20456;-60
2022/08/30 08:06:22;;;;;;;5.47;2.25;;;24.00;60.20;;;;;;5026115;28;20025;-59
2022/08/30 08:08:48;;;;;;;5.60;2.38;;;24.00;60.10;;;;;;5027569;28;20021;-60
2022/08/30 08:11:15;;;;;;;5.82;2.10;;;24.00;60.10;;;;;;5025630;28;20627;-60
2022/08/30 08:13:41;;;;;;;5.22;2.00;;;24.00;60.20;;;;;;5027136;28;20029;-60
2022/08/30 08:16:07;;;;;;;4.35;1.80;;;24.00;60.10;;;;;;5027234;28;20021;-60
2022/08/30 08:18:33;;;;;;;4.60;2.10;;;24.00;60.20;;;;;;5026947;28;20087;-60
2022/08/30 08:20:59;;;;;;;5.32;1.90;;;24.00;60.20;;;;;;5026259;28;20033;-60
2022/08/30 08:23:25;;;;;;;5.88;2.20;;;24.10;60.10;;;;;;5025702;28;20035;-60
2022/08/30 08:25:51;;;;;;;6.07;2.10;;;24.10;60.20;;;;;;5026055;28;20471;-60
2022/08/30 08:28:16;;;;;;;5.15;2.10;;;24.00;60.20;;;;;;5027056;28;20406;-60
2022/08/30 08:30:42;;;;;;;4.60;2.20;;;24.10;60.20;;;;;;5026311;28;20021;-59
2022/08/30 08:33:08;;;;;;;5.97;2.40;;;24.00;60.30;;;;;;5027596;28;20017;-60
2022/08/30 08:35:34;;;;;;;6.47;2.50;;;24.10;60.30;;;;;;5026695;28;20020;-60
2022/08/30 08:37:59;;;;;;;4.97;2.22;;;24.10;60.40;;;;;;5029822;28;20029;-60
2022/08/30 08:40:25;;;;;;;4.90;2.28;;;24.10;60.40;;;;;;5029231;28;20055;-60
2022/08/30 08:43:10;;;;;;;5.55;2.17;;;24.10;60.30;;;;;;5029504;28;20547;-60
2022/08/30 08:45:48;;;;;;;5.18;1.92;;;24.10;60.40;;;;;;5030414;28;20409;-60
2022/08/30 08:48:29;;;;;;;4.40;1.98;;;24.00;60.30;;;;;;5029620;28;20014;-59
2022/08/30 08:53:39;;;;;;;5.60;1.98;;;24.10;61.40;;;;;;5026952;28;20123;-59
2022/08/30 08:56:11;;;;;;;4.75;2.10;;;24.10;60.30;;;;;;5025226;28;20485;-60
2022/08/30 08:58:53;;;;;;;5.65;2.17;;;24.10;60.30;;;;;;5028473;28;20504;-60
2022/08/30 09:01:21;;;;;;;4.43;2.15;;;24.10;60.30;;;;;;5034789;28;20036;-60
2022/08/30 09:03:47;;;;;;;6.13;2.22;;;24.10;60.20;;;;;;5030048;28;20083;-60
2022/08/30 09:06:27;;;;;;;5.47;2.13;;;24.10;60.20;;;;;;5031214;28;20060;-60
2022/08/30 09:08:53;;;;;;;4.68;2.10;;;24.10;60.20;;;;;;5025574;28;20025;-60
2022/08/30 09:11:26;;;;;;;6.00;2.17;;;24.20;60.20;;;;;;5037982;28;20056;-60
2022/08/30 09:13:53;;;;;;;5.30;2.10;;;24.20;60.20;;;;;;5029127;28;20025;-60
2022/08/30 09:16:50;;;;;;;6.25;2.25;;;24.20;60.10;;;;;;5032233;28;20520;-60
2022/08/30 09:19:36;;;;;;;3.78;1.98;;;24.20;60.20;;;;;;5026924;28;20045;-60
2022/08/30 09:22:05;;;;;;;5.78;2.20;;;24.20;59.70;;;;;;5032623;28;20039;-60
2022/08/30 09:24:39;;;;;;;4.97;2.00;;;24.30;59.80;;;;;;5027578;28;20029;-60
2022/08/30 09:27:31;;;;;;;7.05;2.35;;;24.30;59.90;;;;;;5027111;28;20072;-60
2022/08/30 09:30:00;;;;;;;5.25;2.00;;;24.30;59.80;;;;;;5023739;28;20038;-60
2022/08/30 09:32:39;;;;;;;6.25;2.28;;;24.30;60.10;;;;;;5021190;28;20100;-60
2022/08/30 09:35:12;;;;;;;7.65;2.20;;;24.30;60.20;;;;;;5025963;28;20107;-60
2022/08/30 09:37:44;;;;;;;6.18;2.15;;;24.30;60.10;;;;;;5026191;28;20037;-60
2022/08/30 09:40:23;;;;;;;4.53;1.90;;;24.40;60.50;;;;;;5040619;28;20040;-60
2022/08/30 09:43:06;;;;;;;6.13;2.33;;;24.40;60.50;;;;;;5026665;28;20025;-60
2022/08/30 09:45:37;;;;;;;8.57;2.40;;;24.40;60.60;;;;;;5025854;28;20053;-60
2022/08/30 09:48:26;;;;;;;7.30;2.45;;;24.50;60.60;;;;;;5005528;28;20033;-60
2022/08/30 09:51:24;;;;;;;6.20;2.15;;;24.50;60.70;;;;;;5019948;28;20121;-60
2022/08/30 09:53:50;;;;;;;9.40;2.38;;;24.50;60.70;;;;;;5018615;28;20042;-60
2022/08/30 09:56:30;;;;;;;13.05;2.90;;;24.50;61.00;;;;;;5027899;28;20041;-60
2022/08/30 09:59:23;;;;;;;8.57;2.50;;;24.60;61.10;;;;;;5026050;28;20049;-60
2022/08/30 10:02:00;;;;;;;6.47;2.45;;;24.60;61.20;;;;;;5025133;28;20041;-60
2022/08/30 10:04:59;;;;;;;8.98;2.47;;;24.60;61.10;;;;;;5031877;28;20029;-60
2022/08/30 10:07:55;;;;;;;14.60;2.80;;;24.60;61.10;;;;;;4969186;28;20051;-61
2022/08/30 10:10:51;;;;;;;7.68;2.60;;;24.60;61.10;;;;;;4986867;28;20033;-61
2022/08/30 10:13:32;;;;;;;9.15;2.88;;;24.60;61.00;;;;;;4948604;28;20139;-59
2022/08/30 10:16:21;;;;;;;7.95;2.60;;;24.70;61.20;;;;;;4951066;28;20045;-61
2022/08/30 10:19:09;;;;;;;8.82;2.60;;;24.70;61.10;;;;;;4868076;29;20259;-60
2022/08/30 10:21:39;;;;;;;12.70;2.60;;;24.70;61.10;;;;;;4868883;29;20080;-61
2022/08/30 10:24:11;;;;;;;9.20;2.50;;;24.70;61.00;;;;;;4870605;29;20244;-61
2022/08/30 10:26:56;;;;;;;9.05;2.65;;;24.70;61.30;;;;;;4869253;29;20048;-61
2022/08/30 10:29:30;;;;;;;7.40;2.45;;;24.80;61.20;;;;;;4856423;29;20044;-61
2022/08/30 10:32:09;;;;;;;9.90;2.75;;;24.80;61.10;;;;;;4868962;29;20045;-60
2022/08/30 10:34:57;;;;;;;10.13;2.78;;;24.80;61.20;;;;;;4867942;29;20052;-61
2022/08/30 10:37:27;;;;;;;8.82;2.85;;;24.80;61.30;;;;;;4857733;29;20067;-60
2022/08/30 10:39:57;;;;;;;6.85;2.58;;;24.80;61.20;;;;;;4867626;29;20104;-61
2022/08/30 10:42:29;;;;;;;10.18;2.75;;;24.90;61.10;;;;;;4852662;29;20053;-61
2022/08/30 10:45:04;;;;;;;8.40;2.60;;;24.90;61.10;;;;;;4890096;29;20040;-61
2022/08/30 10:47:38;;;;;;;7.97;2.80;;;24.90;61.20;;;;;;4898456;29;20028;-61
2022/08/30 10:50:06;;;;;;;8.80;2.60;;;24.90;61.20;;;;;;4900296;29;20067;-61
2022/08/30 10:52:37;;;;;;;8.55;2.45;;;25.00;61.20;;;;;;4931226;29;20499;-61
2022/08/30 10:55:23;;;;;;;7.93;2.97;;;25.00;61.10;;;;;;4952462;28;20057;-60
2022/08/30 10:57:50;;;;;;;8.13;2.80;;;25.00;61.10;;;;;;5026295;28;20029;-61
2022/08/30 11:00:29;;;;;;;9.38;2.80;;;25.00;60.90;;;;;;5024749;28;20075;-60
2022/08/30 11:03:07;;;;;;;8.00;2.58;;;25.00;61.00;;;;;;5026570;28;20029;-60
2022/08/30 11:05:57;;;;;;;10.07;2.92;;;25.10;61.10;;;;;;5027234;28;20086;-61
2022/08/30 11:08:43;;;;;;;7.88;2.58;;;25.10;60.90;;;;;;5025980;28;20017;-59
2022/08/30 11:11:33;;;;;;;6.90;2.72;;;25.10;61.20;;;;;;5020190;28;20125;-61
2022/08/30 11:14:04;;;;;;;8.15;2.47;;;25.20;60.80;;;;;;5036754;28;20088;-61
2022/08/30 11:16:41;;;;;;;7.80;2.78;;;25.20;60.70;;;;;;5027559;28;20025;-60
2022/08/30 11:19:18;;;;;;;6.88;2.65;;;25.20;60.60;;;;;;5026612;28;20076;-60
2022/08/30 11:21:44;;;;;;;12.10;2.90;;;25.20;60.60;;;;;;5026340;28;20122;-61
2022/08/30 11:24:18;;;;;;;7.55;2.55;;;25.20;60.60;;;;;;5026090;28;20144;-61
2022/08/30 11:26:44;;;;;;;8.75;3.35;;;25.20;61.20;;;;;;5022468;28;20025;-62
2022/08/30 11:29:29;;;;;;;9.35;3.13;;;25.20;60.30;;;;;;5024028;28;20025;-62
2022/08/30 11:32:22;;;;;;;7.40;2.90;;;25.20;60.40;;;;;;5024471;28;20116;-61
2022/08/30 11:34:54;;;;;;;9.48;3.08;;;25.20;60.20;;;;;;5048442;28;20033;-62
2022/08/30 11:37:42;;;;;;;8.05;2.97;;;25.20;60.20;;;;;;5029510;28;20021;-62
2022/08/30 11:40:23;;;;;;;10.05;3.50;;;25.20;60.20;;;;;;5026537;28;20037;-62
2022/08/30 11:42:50;;;;;;;12.07;3.60;;;25.20;59.90;;;;;;5022864;28;20029;-62
2022/08/30 11:45:21;;;;;;;10.18;3.70;;;25.20;59.90;;;;;;5025978;28;20038;-61
2022/08/30 11:47:51;;;;;;;11.90;3.50;;;25.30;59.90;;;;;;5025118;28;20025;-62
2022/08/30 11:50:50;;;;;;;11.90;3.72;;;25.30;59.90;;;;;;5027367;28;20087;-62
2022/08/30 11:53:21;;;;;;;9.38;3.55;;;25.20;59.70;;;;;;5020787;28;20644;-61
2022/08/30 11:56:08;;;;;;;10.77;3.47;;;25.30;59.80;;;;;;5025486;28;20045;-62
2022/08/30 11:58:59;;;;;;;10.20;3.80;;;25.30;59.70;;;;;;5026463;28;20029;-62
2022/08/30 12:01:26;;;;;;;12.40;3.80;;;25.30;59.50;;;;;;5021413;28;20390;-62
2022/08/30 12:04:18;;;;;;;13.80;3.85;;;25.30;59.50;;;;;;5026101;28;20767;-62
2022/08/30 12:06:52;;;;;;;9.57;3.75;;;25.30;59.60;;;;;;5023294;28;20037;-62
2022/08/30 12:09:23;;;;;;;9.27;3.25;;;25.30;59.70;;;;;;5027318;28;20545;-62
2022/08/30 12:11:55;;;;;;;16.40;3.83;;;25.20;59.70;;;;;;5027763;28;20033;-62
2022/08/30 12:14:53;;;;;;;9.50;3.70;;;25.20;59.70;;;;;;5029018;28;20040;-62
2022/08/30 12:20:46;;;;;;;10.88;3.63;;;25.20;59.80;;;;;;5030640;28;20556;-62
2022/08/30 12:23:26;;;;;;;10.82;3.22;;;25.20;59.80;;;;;;5026213;28;20072;-62
2022/08/30 12:26:13;;;;;;;9.30;3.70;;;25.20;60.00;;;;;;5029914;28;20067;-62
2022/08/30 12:28:42;;;;;;;10.77;3.97;;;25.20;59.80;;;;;;5031186;28;20108;-61
2022/08/30 12:31:17;;;;;;;14.27;3.88;;;25.20;59.90;;;;;;5024628;28;20041;-61
2022/08/30 12:33:52;;;;;;;11.25;4.15;;;25.10;59.90;;;;;;5025200;28;20029;-62
2022/08/30 12:36:41;;;;;;;10.65;3.95;;;25.20;59.80;;;;;;5026865;28;20568;-62
2022/08/30 12:39:14;;;;;;;11.73;4.13;;;25.10;59.60;;;;;;5030264;28;20013;-62
2022/08/30 12:41:43;;;;;;;12.27;4.03;;;25.10;59.60;;;;;;5027185;28;20129;-62
2022/08/30 12:44:25;;;;;;;11.77;4.15;;;25.10;59.80;;;;;;5029131;28;20075;-62
2022/08/30 12:46:57;;;;;;;11.60;4.00;;;25.20;59.90;;;;;;5028084;28;20033;-62
2022/08/30 12:49:25;;;;;;;14.35;4.30;;;25.10;59.80;;;;;;5026969;28;20064;-62
2022/08/30 12:51:53;;;;;;;13.23;4.18;;;25.10;59.60;;;;;;5028660;28;20053;-62
2022/08/30 12:54:26;;;;;;;12.65;4.28;;;25.10;59.60;;;;;;5032586;28;20040;-62
2022/08/30 12:57:02;;;;;;;14.45;4.53;;;25.10;59.60;;;;;;5027266;28;20037;-61
2022/08/30 12:59:51;;;;;;;12.93;5.03;;;25.10;59.30;;;;;;5029312;28;20026;-61
2022/08/30 13:02:40;;;;;;;13.05;4.20;;;25.10;59.10;;;;;;5025237;28;20057;-61
2022/08/30 13:05:43;;;;;;;13.75;4.28;;;25.10;59.20;;;;;;5027220;28;20041;-61
2022/08/30 13:08:24;;;;;;;11.32;4.22;;;25.10;59.30;;;;;;5022912;28;20052;-61
2022/08/30 13:11:00;;;;;;;11.43;4.63;;;25.10;58.90;;;;;;5027584;28;20413;-62